Aérodrome :
LOGIN :

S'inscrire | Disclaimer

   EN    FR    IT 

 










Légende :    VFR   VFR Marginal   IFR   IFR Intensif   IFR Très Intensif
Visi : 
Plafond : 
>= 8 km
>= 3000ft
5 à 8 km
1000 à 3000 ft
1500m à 5 km
500 à 1000 ft
800 à 1500m
200 à 500 ft
< 800m
< 200 ft
Symboles :   Orages  Brouillard  Fortes neiges  Fortes précipitations  Vent > 20 kt
SIGMETs :   Divers  Orages  Givrage  Turbulence  Onde Orograph.  Cendres Volcan.







- Altitude de l'aérodrome : 9 ft
- Code IATA : MIR


DTMB - Habib Bourguliba Int. Monastir

DERNIER METAR :
  • 210730Z 28005KT 9999 SCT020 12/11 Q1027 NOSIG

METARs EXPIRÉS :
  • 210700Z 28004KT 5000 OVC019 11/10 Q1027 NOSIG
  • 210630Z 27004KT 5000 OVC016 10/09 Q1026 NOSIG
  • 210600Z 29004KT 270V010 5000 SCT016 10/09 Q1026 NOSIG
  • 210530Z 00000KT 5000 FEW010 SCT016 10/09 Q1026 NOSIG
  • 210500Z 25004KT 5000 BKN015 BKN021 11/10 Q1026 NOSIG

TAF COR TAF DTMB
Valide du 21 à 06h jusqu'au 22 à 06h UTC


210500Z 2106/2206 VRB04KT 5000 FEW010 SCT016
PROB40 2106/210X
Pas de NOTAMs connus pour ce terrain.



MET'MAP, la Météo Aéronautique d'un coup d'oeil ! - Copyright ORBIFLY Décembre 2007 - Disclaimer

ORBIFLY MET'MAP TEAM :

Programmation & Développement : Alexandra Zaïnal
Conception & Développement : Baudouin d'Aumeries
Co-Programmation & Développement : Marc-Olivier Méhu
Soutien technique & logistique : Manuel Goepfert

Contact : metmap@orbifly.com




SOURCES & CREDITS :

   NOAA